sensor_id;sensor_type;location;lat;lon;timestamp;P1;durP1;ratioP1;P2;durP2;ratioP2
48975;SDS011;34791;52.752;8.346;2023-04-07T00:00:21;22.20;;;13.03;;
48975;SDS011;34791;52.752;8.346;2023-04-07T00:02:46;23.23;;;13.10;;
48975;SDS011;34791;52.752;8.346;2023-04-07T00:05:13;21.73;;;13.60;;
48975;SDS011;34791;52.752;8.346;2023-04-07T00:07:39;21.53;;;13.03;;
48975;SDS011;34791;52.752;8.346;2023-04-07T00:10:05;22.60;;;12.47;;
48975;SDS011;34791;52.752;8.346;2023-04-07T00:12:31;21.83;;;13.03;;
48975;SDS011;34791;52.752;8.346;2023-04-07T00:14:56;22.80;;;12.37;;
48975;SDS011;34791;52.752;8.346;2023-04-07T00:17:22;23.10;;;12.30;;
48975;SDS011;34791;52.752;8.346;2023-04-07T00:19:47;23.57;;;12.43;;
48975;SDS011;34791;52.752;8.346;2023-04-07T00:22:13;23.57;;;12.17;;
48975;SDS011;34791;52.752;8.346;2023-04-07T00:24:38;21.07;;;12.10;;
48975;SDS011;34791;52.752;8.346;2023-04-07T00:27:04;21.00;;;12.53;;
48975;SDS011;34791;52.752;8.346;2023-04-07T00:29:29;21.27;;;12.37;;
48975;SDS011;34791;52.752;8.346;2023-04-07T00:31:55;21.00;;;12.60;;
48975;SDS011;34791;52.752;8.346;2023-04-07T00:34:20;24.97;;;13.03;;
48975;SDS011;34791;52.752;8.346;2023-04-07T00:36:46;26.50;;;13.13;;
48975;SDS011;34791;52.752;8.346;2023-04-07T00:39:16;22.37;;;12.87;;
48975;SDS011;34791;52.752;8.346;2023-04-07T00:41:45;24.67;;;13.90;;
48975;SDS011;34791;52.752;8.346;2023-04-07T00:44:11;22.47;;;13.73;;
48975;SDS011;34791;52.752;8.346;2023-04-07T00:46:37;23.33;;;12.97;;
48975;SDS011;34791;52.752;8.346;2023-04-07T00:49:03;23.70;;;12.60;;
48975;SDS011;34791;52.752;8.346;2023-04-07T00:51:28;22.87;;;13.30;;
48975;SDS011;34791;52.752;8.346;2023-04-07T00:53:55;22.10;;;12.53;;
48975;SDS011;34791;52.752;8.346;2023-04-07T00:56:21;19.83;;;11.97;;
48975;SDS011;34791;52.752;8.346;2023-04-07T00:58:47;21.67;;;12.27;;
48975;SDS011;34791;52.752;8.346;2023-04-07T01:04:45;22.42;;;12.90;;
48975;SDS011;34791;52.752;8.346;2023-04-07T01:07:31;21.40;;;13.30;;
48975;SDS011;34791;52.752;8.346;2023-04-07T01:10:25;22.03;;;12.67;;
48975;SDS011;34791;52.752;8.346;2023-04-07T01:13:42;22.90;;;13.23;;
48975;SDS011;34791;52.752;8.346;2023-04-07T01:15:59;23.37;;;14.20;;
48975;SDS011;34791;52.752;8.346;2023-04-07T01:18:30;23.13;;;13.87;;
48975;SDS011;34791;52.752;8.346;2023-04-07T01:21:02;24.43;;;14.23;;
48975;SDS011;34791;52.752;8.346;2023-04-07T01:23:47;24.93;;;13.93;;
48975;SDS011;34791;52.752;8.346;2023-04-07T01:26:33;25.57;;;14.63;;
48975;SDS011;34791;52.752;8.346;2023-04-07T01:29:23;24.03;;;14.10;;
48975;SDS011;34791;52.752;8.346;2023-04-07T01:31:59;25.50;;;14.40;;
48975;SDS011;34791;52.752;8.346;2023-04-07T01:34:26;23.97;;;14.53;;
48975;SDS011;34791;52.752;8.346;2023-04-07T01:36:55;25.83;;;14.30;;
48975;SDS011;34791;52.752;8.346;2023-04-07T01:39:22;24.33;;;14.53;;
48975;SDS011;34791;52.752;8.346;2023-04-07T01:41:50;23.80;;;15.00;;
48975;SDS011;34791;52.752;8.346;2023-04-07T01:44:17;25.87;;;14.03;;
48975;SDS011;34791;52.752;8.346;2023-04-07T01:46:44;24.17;;;14.60;;
48975;SDS011;34791;52.752;8.346;2023-04-07T01:49:10;23.63;;;13.90;;
48975;SDS011;34791;52.752;8.346;2023-04-07T01:51:37;26.67;;;15.53;;
48975;SDS011;34791;52.752;8.346;2023-04-07T01:54:04;28.37;;;14.97;;
48975;SDS011;34791;52.752;8.346;2023-04-07T01:56:32;27.23;;;15.57;;
48975;SDS011;34791;52.752;8.346;2023-04-07T01:58:57;26.10;;;14.30;;
48975;SDS011;34791;52.752;8.346;2023-04-07T02:01:23;25.07;;;13.87;;
48975;SDS011;34791;52.752;8.346;2023-04-07T02:03:53;23.53;;;13.30;;
48975;SDS011;34791;52.752;8.346;2023-04-07T02:06:24;28.50;;;13.87;;
48975;SDS011;34791;52.752;8.346;2023-04-07T02:08:58;26.47;;;15.30;;
48975;SDS011;34791;52.752;8.346;2023-04-07T02:11:26;25.50;;;14.97;;
48975;SDS011;34791;52.752;8.346;2023-04-07T02:13:56;28.50;;;14.93;;
48975;SDS011;34791;52.752;8.346;2023-04-07T02:16:25;23.00;;;13.57;;
48975;SDS011;34791;52.752;8.346;2023-04-07T02:18:54;24.67;;;14.83;;
48975;SDS011;34791;52.752;8.346;2023-04-07T02:21:20;26.90;;;15.17;;
48975;SDS011;34791;52.752;8.346;2023-04-07T02:23:46;22.60;;;13.57;;
48975;SDS011;34791;52.752;8.346;2023-04-07T02:26:12;27.80;;;14.93;;
48975;SDS011;34791;52.752;8.346;2023-04-07T02:28:37;29.20;;;15.97;;
48975;SDS011;34791;52.752;8.346;2023-04-07T02:31:03;28.57;;;15.67;;
48975;SDS011;34791;52.752;8.346;2023-04-07T02:33:28;28.87;;;15.83;;
48975;SDS011;34791;52.752;8.346;2023-04-07T02:35:54;28.20;;;15.93;;
48975;SDS011;34791;52.752;8.346;2023-04-07T02:38:19;28.53;;;16.90;;
48975;SDS011;34791;52.752;8.346;2023-04-07T02:40:45;27.20;;;15.37;;
48975;SDS011;34791;52.752;8.346;2023-04-07T02:43:10;30.23;;;16.93;;
48975;SDS011;34791;52.752;8.346;2023-04-07T02:45:36;27.70;;;15.47;;
48975;SDS011;34791;52.752;8.346;2023-04-07T02:48:01;27.37;;;16.17;;
48975;SDS011;34791;52.752;8.346;2023-04-07T02:50:27;29.67;;;16.57;;
48975;SDS011;34791;52.752;8.346;2023-04-07T02:52:53;26.10;;;15.10;;
48975;SDS011;34791;52.752;8.346;2023-04-07T02:55:18;24.57;;;14.57;;
48975;SDS011;34791;52.752;8.346;2023-04-07T02:57:44;29.93;;;16.50;;
48975;SDS011;34791;52.752;8.346;2023-04-07T03:00:10;29.47;;;16.70;;
48975;SDS011;34791;52.752;8.346;2023-04-07T03:02:36;26.83;;;13.93;;
48975;SDS011;34791;52.752;8.346;2023-04-07T03:05:01;26.07;;;13.83;;
48975;SDS011;34791;52.752;8.346;2023-04-07T03:07:28;24.63;;;14.17;;
48975;SDS011;34791;52.752;8.346;2023-04-07T03:09:55;27.77;;;14.47;;
48975;SDS011;34791;52.752;8.346;2023-04-07T03:12:21;27.30;;;15.13;;
48975;SDS011;34791;52.752;8.346;2023-04-07T03:14:47;26.37;;;15.17;;
48975;SDS011;34791;52.752;8.346;2023-04-07T03:17:12;27.60;;;14.27;;
48975;SDS011;34791;52.752;8.346;2023-04-07T03:19:38;28.03;;;14.30;;
48975;SDS011;34791;52.752;8.346;2023-04-07T03:22:03;29.53;;;14.20;;
48975;SDS011;34791;52.752;8.346;2023-04-07T03:24:29;26.53;;;14.10;;
48975;SDS011;34791;52.752;8.346;2023-04-07T03:26:55;23.87;;;12.87;;
48975;SDS011;34791;52.752;8.346;2023-04-07T03:29:20;23.73;;;12.73;;
48975;SDS011;34791;52.752;8.346;2023-04-07T03:31:46;26.03;;;13.10;;
48975;SDS011;34791;52.752;8.346;2023-04-07T03:34:11;27.53;;;13.93;;
48975;SDS011;34791;52.752;8.346;2023-04-07T03:36:37;23.30;;;13.50;;
48975;SDS011;34791;52.752;8.346;2023-04-07T03:39:03;26.03;;;13.80;;
48975;SDS011;34791;52.752;8.346;2023-04-07T03:41:28;29.10;;;14.47;;
48975;SDS011;34791;52.752;8.346;2023-04-07T03:43:54;24.97;;;14.47;;
48975;SDS011;34791;52.752;8.346;2023-04-07T03:46:19;27.93;;;15.00;;
48975;SDS011;34791;52.752;8.346;2023-04-07T03:48:45;27.97;;;13.57;;
48975;SDS011;34791;52.752;8.346;2023-04-07T03:51:11;26.93;;;13.87;;
48975;SDS011;34791;52.752;8.346;2023-04-07T03:53:37;27.07;;;15.00;;
48975;SDS011;34791;52.752;8.346;2023-04-07T03:56:02;26.17;;;13.80;;
48975;SDS011;34791;52.752;8.346;2023-04-07T03:58:28;25.53;;;13.07;;
48975;SDS011;34791;52.752;8.346;2023-04-07T04:00:54;21.53;;;11.83;;
48975;SDS011;34791;52.752;8.346;2023-04-07T04:03:20;24.67;;;13.07;;
48975;SDS011;34791;52.752;8.346;2023-04-07T04:05:45;23.47;;;12.60;;
48975;SDS011;34791;52.752;8.346;2023-04-07T04:08:11;24.07;;;12.57;;
48975;SDS011;34791;52.752;8.346;2023-04-07T04:10:36;24.97;;;12.60;;
48975;SDS011;34791;52.752;8.346;2023-04-07T04:13:02;24.53;;;12.07;;
48975;SDS011;34791;52.752;8.346;2023-04-07T04:15:30;20.53;;;12.00;;
48975;SDS011;34791;52.752;8.346;2023-04-07T04:17:56;22.37;;;11.73;;
48975;SDS011;34791;52.752;8.346;2023-04-07T04:20:22;21.77;;;12.50;;
48975;SDS011;34791;52.752;8.346;2023-04-07T04:22:47;23.37;;;12.23;;
48975;SDS011;34791;52.752;8.346;2023-04-07T04:25:13;23.87;;;12.50;;
48975;SDS011;34791;52.752;8.346;2023-04-07T04:27:40;23.07;;;12.37;;
48975;SDS011;34791;52.752;8.346;2023-04-07T04:30:06;23.67;;;12.50;;
48975;SDS011;34791;52.752;8.346;2023-04-07T04:32:32;23.17;;;11.90;;
48975;SDS011;34791;52.752;8.346;2023-04-07T04:34:58;25.97;;;13.77;;
48975;SDS011;34791;52.752;8.346;2023-04-07T04:37:24;23.43;;;12.90;;
48975;SDS011;34791;52.752;8.346;2023-04-07T04:39:49;22.77;;;12.23;;
48975;SDS011;34791;52.752;8.346;2023-04-07T04:42:15;23.93;;;13.07;;
48975;SDS011;34791;52.752;8.346;2023-04-07T04:44:40;21.83;;;10.97;;
48975;SDS011;34791;52.752;8.346;2023-04-07T04:47:06;21.57;;;12.10;;
48975;SDS011;34791;52.752;8.346;2023-04-07T04:49:31;24.53;;;11.90;;
48975;SDS011;34791;52.752;8.346;2023-04-07T04:51:57;26.27;;;13.20;;
48975;SDS011;34791;52.752;8.346;2023-04-07T04:54:22;20.37;;;11.27;;
48975;SDS011;34791;52.752;8.346;2023-04-07T04:56:48;21.50;;;11.70;;
48975;SDS011;34791;52.752;8.346;2023-04-07T04:59:13;22.33;;;11.17;;
48975;SDS011;34791;52.752;8.346;2023-04-07T05:01:39;21.57;;;11.47;;
48975;SDS011;34791;52.752;8.346;2023-04-07T05:04:04;21.83;;;12.03;;
48975;SDS011;34791;52.752;8.346;2023-04-07T05:06:30;21.53;;;11.57;;
48975;SDS011;34791;52.752;8.346;2023-04-07T05:08:55;20.67;;;10.90;;
48975;SDS011;34791;52.752;8.346;2023-04-07T05:11:21;19.07;;;10.13;;
48975;SDS011;34791;52.752;8.346;2023-04-07T05:13:46;23.37;;;11.63;;
48975;SDS011;34791;52.752;8.346;2023-04-07T05:16:12;17.83;;;8.33;;
48975;SDS011;34791;52.752;8.346;2023-04-07T05:18:37;19.13;;;10.13;;
48975;SDS011;34791;52.752;8.346;2023-04-07T05:21:03;16.40;;;7.93;;
48975;SDS011;34791;52.752;8.346;2023-04-07T05:23:28;23.93;;;11.00;;
48975;SDS011;34791;52.752;8.346;2023-04-07T05:25:54;16.50;;;9.53;;
48975;SDS011;34791;52.752;8.346;2023-04-07T05:28:19;20.87;;;10.37;;
48975;SDS011;34791;52.752;8.346;2023-04-07T05:30:45;18.50;;;10.50;;
48975;SDS011;34791;52.752;8.346;2023-04-07T05:33:12;18.20;;;9.80;;
48975;SDS011;34791;52.752;8.346;2023-04-07T05:35:37;20.50;;;10.00;;
48975;SDS011;34791;52.752;8.346;2023-04-07T05:38:03;18.10;;;9.87;;
48975;SDS011;34791;52.752;8.346;2023-04-07T05:40:28;19.07;;;11.27;;
48975;SDS011;34791;52.752;8.346;2023-04-07T05:42:56;18.23;;;11.17;;
48975;SDS011;34791;52.752;8.346;2023-04-07T05:45:22;12.73;;;6.77;;
48975;SDS011;34791;52.752;8.346;2023-04-07T05:47:47;17.97;;;8.87;;
48975;SDS011;34791;52.752;8.346;2023-04-07T05:50:15;14.53;;;8.20;;
48975;SDS011;34791;52.752;8.346;2023-04-07T05:52:41;20.43;;;9.60;;
48975;SDS011;34791;52.752;8.346;2023-04-07T05:55:06;15.57;;;8.87;;
48975;SDS011;34791;52.752;8.346;2023-04-07T05:57:32;15.73;;;7.63;;
48975;SDS011;34791;52.752;8.346;2023-04-07T05:59:58;17.80;;;9.23;;
48975;SDS011;34791;52.752;8.346;2023-04-07T06:02:24;12.03;;;6.50;;
48975;SDS011;34791;52.752;8.346;2023-04-07T06:04:50;15.60;;;9.13;;
48975;SDS011;34791;52.752;8.346;2023-04-07T06:07:15;14.80;;;8.87;;
48975;SDS011;34791;52.752;8.346;2023-04-07T06:09:41;17.30;;;9.37;;
48975;SDS011;34791;52.752;8.346;2023-04-07T06:12:07;17.43;;;9.63;;
48975;SDS011;34791;52.752;8.346;2023-04-07T06:14:33;12.10;;;6.47;;
48975;SDS011;34791;52.752;8.346;2023-04-07T06:16:59;13.83;;;8.27;;
48975;SDS011;34791;52.752;8.346;2023-04-07T06:19:25;17.47;;;9.07;;
48975;SDS011;34791;52.752;8.346;2023-04-07T06:21:51;17.40;;;9.37;;
48975;SDS011;34791;52.752;8.346;2023-04-07T06:24:17;18.07;;;9.27;;
48975;SDS011;34791;52.752;8.346;2023-04-07T06:26:43;14.03;;;7.53;;
48975;SDS011;34791;52.752;8.346;2023-04-07T06:29:08;14.70;;;7.77;;
48975;SDS011;34791;52.752;8.346;2023-04-07T06:31:34;16.57;;;7.90;;
48975;SDS011;34791;52.752;8.346;2023-04-07T06:33:59;15.43;;;8.90;;
48975;SDS011;34791;52.752;8.346;2023-04-07T06:36:25;14.40;;;8.83;;
48975;SDS011;34791;52.752;8.346;2023-04-07T06:38:51;11.90;;;6.00;;
48975;SDS011;34791;52.752;8.346;2023-04-07T06:41:17;14.27;;;8.63;;
48975;SDS011;34791;52.752;8.346;2023-04-07T06:43:43;13.43;;;7.83;;
48975;SDS011;34791;52.752;8.346;2023-04-07T06:46:10;7.07;;;3.67;;
48975;SDS011;34791;52.752;8.346;2023-04-07T06:48:36;13.07;;;7.23;;
48975;SDS011;34791;52.752;8.346;2023-04-07T06:51:01;12.23;;;6.43;;
48975;SDS011;34791;52.752;8.346;2023-04-07T06:53:27;14.37;;;6.47;;
48975;SDS011;34791;52.752;8.346;2023-04-07T06:56:01;16.33;;;8.20;;
48975;SDS011;34791;52.752;8.346;2023-04-07T06:58:31;8.00;;;3.73;;
48975;SDS011;34791;52.752;8.346;2023-04-07T07:00:56;10.70;;;5.87;;
48975;SDS011;34791;52.752;8.346;2023-04-07T07:03:22;11.50;;;5.97;;
48975;SDS011;34791;52.752;8.346;2023-04-07T07:05:47;10.37;;;5.60;;
48975;SDS011;34791;52.752;8.346;2023-04-07T07:08:13;13.10;;;6.70;;
48975;SDS011;34791;52.752;8.346;2023-04-07T07:10:38;11.03;;;6.30;;
48975;SDS011;34791;52.752;8.346;2023-04-07T07:13:04;13.33;;;6.80;;
48975;SDS011;34791;52.752;8.346;2023-04-07T07:15:29;12.60;;;7.07;;
48975;SDS011;34791;52.752;8.346;2023-04-07T07:17:55;12.07;;;5.67;;
48975;SDS011;34791;52.752;8.346;2023-04-07T07:20:20;10.03;;;5.87;;
48975;SDS011;34791;52.752;8.346;2023-04-07T07:22:47;12.40;;;7.07;;
48975;SDS011;34791;52.752;8.346;2023-04-07T07:25:13;11.00;;;6.17;;
48975;SDS011;34791;52.752;8.346;2023-04-07T07:27:38;13.77;;;7.53;;
48975;SDS011;34791;52.752;8.346;2023-04-07T07:30:04;9.73;;;5.17;;
48975;SDS011;34791;52.752;8.346;2023-04-07T07:32:30;10.10;;;5.40;;
48975;SDS011;34791;52.752;8.346;2023-04-07T07:34:56;11.73;;;7.37;;
48975;SDS011;34791;52.752;8.346;2023-04-07T07:37:21;11.90;;;6.93;;
48975;SDS011;34791;52.752;8.346;2023-04-07T07:39:47;18.10;;;8.57;;
48975;SDS011;34791;52.752;8.346;2023-04-07T07:42:12;16.77;;;8.17;;
48975;SDS011;34791;52.752;8.346;2023-04-07T07:44:38;11.03;;;6.27;;
48975;SDS011;34791;52.752;8.346;2023-04-07T07:47:03;13.60;;;7.77;;
48975;SDS011;34791;52.752;8.346;2023-04-07T07:49:28;14.93;;;8.37;;
48975;SDS011;34791;52.752;8.346;2023-04-07T07:51:54;11.27;;;6.40;;
48975;SDS011;34791;52.752;8.346;2023-04-07T07:54:20;15.83;;;7.63;;
48975;SDS011;34791;52.752;8.346;2023-04-07T07:56:45;14.57;;;7.63;;
48975;SDS011;34791;52.752;8.346;2023-04-07T07:59:11;13.43;;;5.87;;
48975;SDS011;34791;52.752;8.346;2023-04-07T08:01:36;14.53;;;6.77;;
48975;SDS011;34791;52.752;8.346;2023-04-07T08:04:01;12.00;;;6.77;;
48975;SDS011;34791;52.752;8.346;2023-04-07T08:06:27;14.53;;;7.30;;
48975;SDS011;34791;52.752;8.346;2023-04-07T08:08:53;13.33;;;7.00;;
48975;SDS011;34791;52.752;8.346;2023-04-07T08:11:18;13.10;;;6.40;;
48975;SDS011;34791;52.752;8.346;2023-04-07T08:13:45;15.77;;;8.80;;
48975;SDS011;34791;52.752;8.346;2023-04-07T08:16:10;14.90;;;9.40;;
48975;SDS011;34791;52.752;8.346;2023-04-07T08:18:36;14.60;;;8.60;;
48975;SDS011;34791;52.752;8.346;2023-04-07T08:21:03;12.13;;;6.20;;
48975;SDS011;34791;52.752;8.346;2023-04-07T08:23:29;12.83;;;6.67;;
48975;SDS011;34791;52.752;8.346;2023-04-07T08:25:55;9.43;;;4.53;;
48975;SDS011;34791;52.752;8.346;2023-04-07T08:28:21;12.93;;;7.80;;
48975;SDS011;34791;52.752;8.346;2023-04-07T08:30:47;15.03;;;8.87;;
48975;SDS011;34791;52.752;8.346;2023-04-07T08:33:12;13.10;;;6.47;;
48975;SDS011;34791;52.752;8.346;2023-04-07T08:35:38;12.83;;;7.20;;
48975;SDS011;34791;52.752;8.346;2023-04-07T08:38:03;14.93;;;7.30;;
48975;SDS011;34791;52.752;8.346;2023-04-07T08:40:29;15.20;;;7.80;;
48975;SDS011;34791;52.752;8.346;2023-04-07T08:42:56;15.23;;;7.93;;
48975;SDS011;34791;52.752;8.346;2023-04-07T08:45:24;10.77;;;6.33;;
48975;SDS011;34791;52.752;8.346;2023-04-07T08:47:51;13.13;;;7.07;;
48975;SDS011;34791;52.752;8.346;2023-04-07T08:50:24;11.70;;;5.87;;
48975;SDS011;34791;52.752;8.346;2023-04-07T08:52:55;10.83;;;5.33;;
48975;SDS011;34791;52.752;8.346;2023-04-07T08:55:23;10.03;;;5.50;;
48975;SDS011;34791;52.752;8.346;2023-04-07T08:57:50;11.53;;;6.33;;
48975;SDS011;34791;52.752;8.346;2023-04-07T09:00:16;13.23;;;6.57;;
48975;SDS011;34791;52.752;8.346;2023-04-07T09:02:42;12.07;;;7.82;;
48975;SDS011;34791;52.752;8.346;2023-04-07T09:05:09;10.30;;;4.55;;
48975;SDS011;34791;52.752;8.346;2023-04-07T09:07:36;12.97;;;6.83;;
48975;SDS011;34791;52.752;8.346;2023-04-07T09:10:02;8.67;;;4.73;;
48975;SDS011;34791;52.752;8.346;2023-04-07T09:12:29;11.03;;;6.23;;
48975;SDS011;34791;52.752;8.346;2023-04-07T09:14:55;11.25;;;6.10;;
48975;SDS011;34791;52.752;8.346;2023-04-07T09:17:22;10.87;;;5.70;;
48975;SDS011;34791;52.752;8.346;2023-04-07T09:19:51;14.97;;;7.80;;
48975;SDS011;34791;52.752;8.346;2023-04-07T09:22:33;8.77;;;4.22;;
48975;SDS011;34791;52.752;8.346;2023-04-07T09:25:13;12.65;;;6.55;;
48975;SDS011;34791;52.752;8.346;2023-04-07T09:27:56;8.38;;;4.72;;
48975;SDS011;34791;52.752;8.346;2023-04-07T09:30:23;10.40;;;5.97;;
48975;SDS011;34791;52.752;8.346;2023-04-07T09:32:49;10.77;;;5.72;;
48975;SDS011;34791;52.752;8.346;2023-04-07T09:35:15;10.35;;;5.32;;
48975;SDS011;34791;52.752;8.346;2023-04-07T09:37:41;10.07;;;6.10;;
48975;SDS011;34791;52.752;8.346;2023-04-07T09:40:07;10.15;;;5.88;;
48975;SDS011;34791;52.752;8.346;2023-04-07T09:42:33;7.95;;;4.10;;
48975;SDS011;34791;52.752;8.346;2023-04-07T09:45:01;11.27;;;6.00;;
48975;SDS011;34791;52.752;8.346;2023-04-07T09:47:27;11.10;;;5.40;;
48975;SDS011;34791;52.752;8.346;2023-04-07T09:49:54;10.90;;;4.82;;
48975;SDS011;34791;52.752;8.346;2023-04-07T09:52:47;8.77;;;4.70;;
48975;SDS011;34791;52.752;8.346;2023-04-07T09:55:19;13.32;;;7.90;;
48975;SDS011;34791;52.752;8.346;2023-04-07T09:57:47;11.18;;;6.53;;
48975;SDS011;34791;52.752;8.346;2023-04-07T10:00:14;7.82;;;3.92;;
48975;SDS011;34791;52.752;8.346;2023-04-07T10:02:40;12.77;;;7.80;;
48975;SDS011;34791;52.752;8.346;2023-04-07T10:05:07;9.30;;;6.28;;
48975;SDS011;34791;52.752;8.346;2023-04-07T10:07:33;11.43;;;6.15;;
48975;SDS011;34791;52.752;8.346;2023-04-07T10:09:59;13.55;;;8.35;;
48975;SDS011;34791;52.752;8.346;2023-04-07T10:12:25;13.73;;;8.60;;
48975;SDS011;34791;52.752;8.346;2023-04-07T10:14:51;11.95;;;7.05;;
48975;SDS011;34791;52.752;8.346;2023-04-07T10:17:17;11.93;;;7.03;;
48975;SDS011;34791;52.752;8.346;2023-04-07T10:19:44;10.82;;;6.03;;
48975;SDS011;34791;52.752;8.346;2023-04-07T10:22:12;10.88;;;6.10;;
48975;SDS011;34791;52.752;8.346;2023-04-07T10:27:36;10.18;;;5.18;;
48975;SDS011;34791;52.752;8.346;2023-04-07T10:30:10;13.32;;;7.50;;
48975;SDS011;34791;52.752;8.346;2023-04-07T10:32:49;14.43;;;8.63;;
48975;SDS011;34791;52.752;8.346;2023-04-07T10:35:15;13.57;;;7.13;;
48975;SDS011;34791;52.752;8.346;2023-04-07T10:37:49;17.15;;;10.18;;
48975;SDS011;34791;52.752;8.346;2023-04-07T10:40:45;14.02;;;7.93;;
48975;SDS011;34791;52.752;8.346;2023-04-07T10:43:10;16.80;;;9.63;;
48975;SDS011;34791;52.752;8.346;2023-04-07T10:45:51;15.65;;;9.88;;
48975;SDS011;34791;52.752;8.346;2023-04-07T10:48:21;17.42;;;10.68;;
48975;SDS011;34791;52.752;8.346;2023-04-07T10:57:05;16.13;;;8.93;;
48975;SDS011;34791;52.752;8.346;2023-04-07T10:59:36;15.27;;;8.90;;
48975;SDS011;34791;52.752;8.346;2023-04-07T11:04:58;11.83;;;5.43;;
48975;SDS011;34791;52.752;8.346;2023-04-07T11:07:41;15.13;;;7.23;;
48975;SDS011;34791;52.752;8.346;2023-04-07T11:10:09;15.70;;;6.53;;
48975;SDS011;34791;52.752;8.346;2023-04-07T11:12:37;14.57;;;7.30;;
48975;SDS011;34791;52.752;8.346;2023-04-07T11:15:15;10.43;;;5.63;;
48975;SDS011;34791;52.752;8.346;2023-04-07T11:17:44;12.80;;;5.85;;
48975;SDS011;34791;52.752;8.346;2023-04-07T11:20:10;11.97;;;6.87;;
48975;SDS011;34791;52.752;8.346;2023-04-07T11:22:35;13.90;;;6.87;;
48975;SDS011;34791;52.752;8.346;2023-04-07T11:25:01;13.10;;;6.73;;
48975;SDS011;34791;52.752;8.346;2023-04-07T11:27:27;15.63;;;8.30;;
48975;SDS011;34791;52.752;8.346;2023-04-07T11:29:53;15.63;;;7.87;;
48975;SDS011;34791;52.752;8.346;2023-04-07T11:32:22;15.50;;;7.33;;
48975;SDS011;34791;52.752;8.346;2023-04-07T11:34:53;11.60;;;6.20;;
48975;SDS011;34791;52.752;8.346;2023-04-07T11:37:20;14.93;;;7.57;;
48975;SDS011;34791;52.752;8.346;2023-04-07T11:39:53;15.57;;;8.17;;
48975;SDS011;34791;52.752;8.346;2023-04-07T11:42:35;15.67;;;6.93;;
48975;SDS011;34791;52.752;8.346;2023-04-07T11:45:02;12.37;;;5.93;;
48975;SDS011;34791;52.752;8.346;2023-04-07T11:47:38;10.40;;;5.53;;
48975;SDS011;34791;52.752;8.346;2023-04-07T11:50:05;12.63;;;7.00;;
48975;SDS011;34791;52.752;8.346;2023-04-07T11:52:44;15.93;;;8.47;;
48975;SDS011;34791;52.752;8.346;2023-04-07T11:55:20;13.07;;;5.33;;
48975;SDS011;34791;52.752;8.346;2023-04-07T11:57:48;10.03;;;5.13;;
48975;SDS011;34791;52.752;8.346;2023-04-07T12:00:15;11.07;;;4.67;;
48975;SDS011;34791;52.752;8.346;2023-04-07T12:02:42;12.07;;;5.87;;
48975;SDS011;34791;52.752;8.346;2023-04-07T12:05:08;14.80;;;6.70;;
48975;SDS011;34791;52.752;8.346;2023-04-07T12:07:34;16.57;;;7.43;;
48975;SDS011;34791;52.752;8.346;2023-04-07T12:10:19;16.50;;;6.93;;
48975;SDS011;34791;52.752;8.346;2023-04-07T12:12:46;16.58;;;8.00;;
48975;SDS011;34791;52.752;8.346;2023-04-07T12:15:12;19.08;;;6.40;;
48975;SDS011;34791;52.752;8.346;2023-04-07T12:17:42;11.25;;;5.00;;
48975;SDS011;34791;52.752;8.346;2023-04-07T12:20:10;12.63;;;6.53;;
48975;SDS011;34791;52.752;8.346;2023-04-07T12:22:36;15.30;;;7.63;;
48975;SDS011;34791;52.752;8.346;2023-04-07T12:25:01;11.13;;;4.88;;
48975;SDS011;34791;52.752;8.346;2023-04-07T12:27:27;9.93;;;5.68;;
48975;SDS011;34791;52.752;8.346;2023-04-07T12:29:52;16.70;;;8.63;;
48975;SDS011;34791;52.752;8.346;2023-04-07T12:32:18;13.27;;;7.38;;
48975;SDS011;34791;52.752;8.346;2023-04-07T12:34:43;19.55;;;8.48;;
48975;SDS011;34791;52.752;8.346;2023-04-07T12:37:09;16.63;;;8.60;;
48975;SDS011;34791;52.752;8.346;2023-04-07T12:39:34;13.32;;;7.35;;
48975;SDS011;34791;52.752;8.346;2023-04-07T12:42:00;10.75;;;4.80;;
48975;SDS011;34791;52.752;8.346;2023-04-07T12:44:25;14.65;;;7.75;;
48975;SDS011;34791;52.752;8.346;2023-04-07T12:46:51;13.50;;;7.68;;
48975;SDS011;34791;52.752;8.346;2023-04-07T12:49:17;14.65;;;7.45;;
48975;SDS011;34791;52.752;8.346;2023-04-07T12:51:42;12.55;;;6.05;;
48975;SDS011;34791;52.752;8.346;2023-04-07T12:54:08;13.30;;;6.38;;
48975;SDS011;34791;52.752;8.346;2023-04-07T12:56:33;13.10;;;5.47;;
48975;SDS011;34791;52.752;8.346;2023-04-07T12:58:59;13.45;;;7.05;;
48975;SDS011;34791;52.752;8.346;2023-04-07T13:01:24;14.40;;;7.05;;
48975;SDS011;34791;52.752;8.346;2023-04-07T13:03:51;12.55;;;6.43;;
48975;SDS011;34791;52.752;8.346;2023-04-07T13:06:16;13.43;;;7.82;;
48975;SDS011;34791;52.752;8.346;2023-04-07T13:08:43;10.93;;;5.43;;
48975;SDS011;34791;52.752;8.346;2023-04-07T13:11:08;13.48;;;7.20;;
48975;SDS011;34791;52.752;8.346;2023-04-07T13:13:34;11.15;;;5.68;;
48975;SDS011;34791;52.752;8.346;2023-04-07T13:15:59;11.65;;;6.28;;
48975;SDS011;34791;52.752;8.346;2023-04-07T13:18:25;14.73;;;8.02;;
48975;SDS011;34791;52.752;8.346;2023-04-07T13:20:50;13.57;;;7.47;;
48975;SDS011;34791;52.752;8.346;2023-04-07T13:23:16;11.07;;;6.03;;
48975;SDS011;34791;52.752;8.346;2023-04-07T13:25:41;12.00;;;5.82;;
48975;SDS011;34791;52.752;8.346;2023-04-07T13:28:07;14.52;;;7.93;;
48975;SDS011;34791;52.752;8.346;2023-04-07T13:30:32;12.05;;;7.05;;
48975;SDS011;34791;52.752;8.346;2023-04-07T13:32:58;11.45;;;4.43;;
48975;SDS011;34791;52.752;8.346;2023-04-07T13:35:23;15.20;;;8.25;;
48975;SDS011;34791;52.752;8.346;2023-04-07T13:37:49;10.55;;;5.47;;
48975;SDS011;34791;52.752;8.346;2023-04-07T13:40:15;14.18;;;7.50;;
48975;SDS011;34791;52.752;8.346;2023-04-07T13:42:42;12.82;;;6.55;;
48975;SDS011;34791;52.752;8.346;2023-04-07T13:45:07;14.32;;;7.28;;
48975;SDS011;34791;52.752;8.346;2023-04-07T13:47:33;11.93;;;7.13;;
48975;SDS011;34791;52.752;8.346;2023-04-07T13:49:59;12.45;;;6.72;;
48975;SDS011;34791;52.752;8.346;2023-04-07T13:52:25;12.95;;;7.20;;
48975;SDS011;34791;52.752;8.346;2023-04-07T13:54:51;12.57;;;6.88;;
48975;SDS011;34791;52.752;8.346;2023-04-07T13:57:17;10.70;;;6.07;;
48975;SDS011;34791;52.752;8.346;2023-04-07T13:59:45;13.40;;;7.15;;
48975;SDS011;34791;52.752;8.346;2023-04-07T14:02:12;13.70;;;8.00;;
48975;SDS011;34791;52.752;8.346;2023-04-07T14:04:38;15.15;;;8.27;;
48975;SDS011;34791;52.752;8.346;2023-04-07T14:07:03;13.00;;;7.47;;
48975;SDS011;34791;52.752;8.346;2023-04-07T14:09:29;13.25;;;7.93;;
48975;SDS011;34791;52.752;8.346;2023-04-07T14:11:54;13.30;;;7.25;;
48975;SDS011;34791;52.752;8.346;2023-04-07T14:14:21;13.02;;;7.40;;
48975;SDS011;34791;52.752;8.346;2023-04-07T14:16:47;9.68;;;4.97;;
48975;SDS011;34791;52.752;8.346;2023-04-07T14:19:15;13.88;;;5.70;;
48975;SDS011;34791;52.752;8.346;2023-04-07T14:21:40;13.93;;;7.05;;
48975;SDS011;34791;52.752;8.346;2023-04-07T14:24:06;12.98;;;6.38;;
48975;SDS011;34791;52.752;8.346;2023-04-07T14:26:31;12.77;;;7.20;;
48975;SDS011;34791;52.752;8.346;2023-04-07T14:28:57;13.93;;;7.45;;
48975;SDS011;34791;52.752;8.346;2023-04-07T14:31:22;12.95;;;5.80;;
48975;SDS011;34791;52.752;8.346;2023-04-07T14:33:48;14.02;;;6.93;;
48975;SDS011;34791;52.752;8.346;2023-04-07T14:36:13;10.80;;;5.40;;
48975;SDS011;34791;52.752;8.346;2023-04-07T14:38:40;11.45;;;6.47;;
48975;SDS011;34791;52.752;8.346;2023-04-07T14:41:07;13.52;;;7.47;;
48975;SDS011;34791;52.752;8.346;2023-04-07T14:43:33;11.48;;;6.18;;
48975;SDS011;34791;52.752;8.346;2023-04-07T14:45:59;12.50;;;6.53;;